Pagina principale
METAR-TAF:

METAR-TAF

Aeroporti :

Castres, Francia

latitudine: 43-33-25N, longitudine: 2-17-21E, altezza: 239 m

Osservazione

Il bollettino è stato emesso 21 minuti fa, alle 06:00 UTC
Vento 19 kt da est/sud-est
Temperature 28°C
Umidità 35%
Pressione 1019 hPa
Visibilità 10 km o più
nessuna nube inferiore a 1500 m e nessun cumulonembo

METAR: LFCK 270600Z AUTO 12019KT CAVOK 28/11 Q1019 NOSIG

Ora: 08:21 (06:21 UTC)

Previsione

Il bollettino è stato emesso 1 ora e 21 minuti fa, alle 05:00 UTC
Previsione valida dal 27 alle 06 UTC al 27 alle 15 UTC
Vento 15 kt da sud-est
Visibilità 10 km o più
nessuna nube inferiore a 1500 m e nessun cumulonembo

TAF: LFCK 270500Z 2706/2715 13015KT CAVOK

Osservazioni e previsioni meteorologiche di più di 4000 aeroporti (messaggi METAR e TAF).

Le stazioni disponibili sono rappresentate dai dischi gialli e rossi sulla carta.

Puntare il mouse per vedere il nome della stazione.

Clicca sopra per visualizzare le osservazioni e previsioni meteorologiche.

Per cambiare la mappa : fare clic sui pulsanti verdi con una croce nera per ingrandire, il pulsante verde con un trattino per diminuire, o sulla freccia verde per le mappe adiacenti.


METAR-TAF: